Aviation Digital Data Service (ADDS)

Output produced by METARs form (2016 UTC 25 April 2018)
found at http://aviationweather.gov/adds/metars/
 
METAR text: KCXP 252015Z AUTO 10005KT 10SM CLR 24/M05 A3016 RMK AO2
Conditions at: KCXP (CARSON CITY , NV, US) observed 2015 UTC 25 April 2018
Temperature: 24.0°C (75°F)
Dewpoint: -5.0°C (23°F) [RH = 14%]
Pressure (altimeter): 30.16 inches Hg (1021.4 mb)
Winds: from the E (100 degrees) at 6 MPH (5 knots; 2.6 m/s)
Visibility: 10 or more miles (16+ km)
Ceiling: at least 12,000 feet AGL
Clouds: sky clear below 12,000 feet AGL
Weather: automated observation with no human augmentation;
there may or may not be significant weather present at this time

Forecast for: KCXP (CARSON CITY , NV, US)
Text: KCXP 251720Z 2518/2618 VRB05KT P6SM BKN250
Forecast period: 1800 to 2100 UTC 25 April 2018
Forecast type: FROM: standard forecast or significant change
Winds: variable direction winds at 6 MPH (5 knots; 2.6 m/s)
Visibility: 6 or more miles (10+ km)
Ceiling: 25000 feet AGL
Clouds: broken clouds at 25000 feet AGL
Weather: no significant weather forecast for this period
Forecast for: KCXP (CARSON CITY , NV, US)
Text: KCXP 251720Z 2518/2618 VRB05KT P6SM BKN250
Forecast period: 1800 to 2100 UTC 25 April 2018
Forecast type: FROM: standard forecast or significant change
Winds: variable direction winds at 6 MPH (5 knots; 2.6 m/s)
Visibility: 6 or more miles (10+ km)
Ceiling: 25000 feet AGL
Clouds: broken clouds at 25000 feet AGL
Weather: no significant weather forecast for this period
Forecast for: KCXP (CARSON CITY , NV, US)
Text: KCXP 251720Z 2518/2618 VRB05KT P6SM BKN250
Forecast period: 2100 UTC 25 April 2018 to 0300 UTC 26 April 2018
Forecast type: FROM: standard forecast or significant change
Winds: from the E (90 degrees) at 8 MPH (7 knots; 3.6 m/s)
Visibility: 6 or more miles (10+ km)
Clouds: scattered clouds at 18000 feet AGL
Weather: no significant weather forecast for this period
Forecast for: KCXP (CARSON CITY , NV, US)
Text: KCXP 251720Z 2518/2618 VRB05KT P6SM BKN250
Forecast period: 2100 UTC 25 April 2018 to 0300 UTC 26 April 2018
Forecast type: FROM: standard forecast or significant change
Winds: from the E (90 degrees) at 8 MPH (7 knots; 3.6 m/s)
Visibility: 6 or more miles (10+ km)
Clouds: scattered clouds at 18000 feet AGL
Weather: no significant weather forecast for this period
Forecast for: KCXP (CARSON CITY , NV, US)
Text: KCXP 251720Z 2518/2618 VRB05KT P6SM BKN250
Forecast period: 0300 to 1800 UTC 26 April 2018
Forecast type: FROM: standard forecast or significant change
Winds: variable direction winds at 3 MPH (3 knots; 1.6 m/s)
Visibility: 6 or more miles (10+ km)
Clouds: scattered clouds at 20000 feet AGL
Weather: no significant weather forecast for this period
Forecast for: KCXP (CARSON CITY , NV, US)
Text: KCXP 251720Z 2518/2618 VRB05KT P6SM BKN250
Forecast period: 0300 to 1800 UTC 26 April 2018
Forecast type: FROM: standard forecast or significant change
Winds: variable direction winds at 3 MPH (3 knots; 1.6 m/s)
Visibility: 6 or more miles (10+ km)
Clouds: scattered clouds at 20000 feet AGL
Weather: no significant weather forecast for this period